Time;durP1;ratioP1;P1;durP2;ratioP2;P2;SDS_P1;SDS_P2;PMS_P1;PMS_P2;Temp;Humidity;BMP_temperature;BMP_pressure;BME280_temperature;BME280_humidity;BME280_pressure;Samples;Min_cycle;Max_cycle;Signal;HPM_P1;HPM_P2
2022/04/11 00:02:20;;;;;;;7.18;4.50;;;;;;;1.38;76.99;93406.88;4930555;28;20082;-77
2022/04/11 00:04:45;;;;;;;5.95;3.88;;;;;;;1.34;76.48;93392.75;4917211;28;20473;-77
2022/04/11 00:07:10;;;;;;;8.73;4.93;;;;;;;1.40;75.90;93386.47;4933820;29;20593;-77
2022/04/11 00:09:37;;;;;;;7.30;4.68;;;;;;;1.35;75.55;93377.81;4925709;28;20111;-73
2022/04/11 00:12:03;;;;;;;5.95;4.28;;;;;;;1.47;75.23;93397.44;4926485;28;20469;-77
2022/04/11 00:14:29;;;;;;;8.88;4.70;;;;;;;1.56;74.84;93400.31;4925864;28;20442;-77
2022/04/11 00:16:54;;;;;;;7.95;4.85;;;;;;;1.59;74.85;93390.06;4928407;28;20662;-77
2022/04/11 00:19:20;;;;;;;6.35;3.97;;;;;;;1.62;74.23;93394.75;4922519;29;20070;-76
2022/04/11 00:21:45;;;;;;;11.05;4.45;;;;;;;1.46;73.33;93400.34;4920873;28;20039;-76
2022/04/11 00:24:11;;;;;;;5.82;4.10;;;;;;;1.74;73.37;93404.97;4929350;28;20537;-72
2022/04/11 00:26:36;;;;;;;4.45;3.60;;;;;;;1.59;73.27;93379.59;4929928;28;20036;-76
2022/04/11 00:29:02;;;;;;;7.13;4.57;;;;;;;1.70;72.84;93421.50;4923710;28;20077;-77
2022/04/11 00:31:29;;;;;;;5.50;3.50;;;;;;;1.73;73.19;93415.69;4922206;29;20031;-77
2022/04/11 00:33:55;;;;;;;7.80;5.70;;;;;;;1.70;72.45;93431.97;4932261;28;20615;-77
2022/04/11 00:36:20;;;;;;;7.90;5.18;;;;;;;1.78;72.54;93440.06;4916684;28;20035;-76
2022/04/11 00:38:46;;;;;;;6.25;4.22;;;;;;;1.66;71.32;93432.53;4927415;28;20047;-74
2022/04/11 00:41:11;;;;;;;7.57;5.05;;;;;;;1.50;72.02;93409.22;4929179;28;20624;-77
2022/04/11 00:43:39;;;;;;;5.40;3.88;;;;;;;1.62;71.56;93414.94;4929927;29;20533;-76
2022/04/11 00:46:06;;;;;;;4.00;3.35;;;;;;;1.73;71.10;93436.69;4918626;28;20035;-75
2022/04/11 00:48:31;;;;;;;8.93;3.53;;;;;;;1.86;70.87;93454.50;4924788;28;20036;-73
2022/04/11 00:51:03;;;;;;;7.43;3.85;;;;;;;1.87;71.15;93453.44;4921272;28;20576;-76
2022/04/11 00:53:30;;;;;;;4.35;3.80;;;;;;;1.90;70.25;93440.59;4932038;28;20039;-77
2022/04/11 00:56:01;;;;;;;5.88;4.50;;;;;;;1.90;69.94;93450.31;4920222;28;20042;-74
2022/04/11 00:58:30;;;;;;;6.30;3.63;;;;;;;1.78;70.00;93449.78;4938444;28;20054;-76
2022/04/11 01:00:56;;;;;;;6.63;3.15;;;;;;;1.70;69.05;93443.25;4924301;28;20039;-77
2022/04/11 01:03:21;;;;;;;6.90;3.80;;;;;;;1.74;69.57;93453.97;4923386;28;20070;-76
2022/04/11 01:05:47;;;;;;;5.20;2.83;;;;;;;1.75;69.49;93471.28;4929807;28;20391;-77
2022/04/11 01:08:12;;;;;;;3.00;2.63;;;;;;;1.79;69.34;93477.56;4918698;28;20479;-78
2022/04/11 01:10:38;;;;;;;11.43;3.05;;;;;;;1.86;68.88;93472.84;4923042;29;20568;-77
2022/04/11 01:13:03;;;;;;;7.85;2.75;;;;;;;1.92;68.70;93484.91;4918931;28;20039;-76
2022/04/11 01:15:29;;;;;;;4.50;2.95;;;;;;;1.85;68.54;93471.25;4923072;28;20047;-78
2022/04/11 01:17:54;;;;;;;3.78;3.25;;;;;;;2.02;68.72;93493.53;4929788;28;20043;-78
2022/04/11 01:20:20;;;;;;;5.68;3.47;;;;;;;2.21;68.80;93491.09;4927456;28;20044;-76
2022/04/11 01:22:47;;;;;;;3.92;2.92;;;;;;;2.34;67.56;93498.41;4923849;28;20656;-78
2022/04/11 01:25:14;;;;;;;4.65;2.95;;;;;;;2.37;66.91;93495.22;4926145;28;20106;-77
2022/04/11 01:27:40;;;;;;;5.13;2.88;;;;;;;2.34;66.42;93502.88;4919764;28;20463;-76
2022/04/11 01:30:07;;;;;;;3.45;2.55;;;;;;;2.25;65.89;93502.66;4925916;28;20346;-76
2022/04/11 01:32:33;;;;;;;5.00;2.92;;;;;;;2.28;66.38;93491.59;4927457;28;20038;-77
2022/04/11 01:34:58;;;;;;;3.40;2.75;;;;;;;2.23;65.11;93494.25;4918932;28;20031;-77
2022/04/11 01:37:24;;;;;;;3.80;2.75;;;;;;;2.43;65.12;93506.50;4923855;28;20137;-76
2022/04/11 01:39:50;;;;;;;6.38;2.65;;;;;;;2.34;64.78;93490.53;4919915;28;20892;-78
2022/04/11 01:42:15;;;;;;;3.85;2.80;;;;;;;2.40;64.35;93488.69;4932264;28;20046;-77
2022/04/11 01:44:41;;;;;;;8.18;2.97;;;;;;;2.57;64.12;93525.06;4915923;28;20043;-76
2022/04/11 01:47:06;;;;;;;5.43;2.95;;;;;;;2.51;63.79;93521.69;4929212;28;20044;-74
2022/04/11 01:49:32;;;;;;;3.15;2.60;;;;;;;2.55;64.22;93529.81;4923771;28;20020;-75
2022/04/11 01:51:57;;;;;;;5.43;2.90;;;;;;;2.56;63.72;93528.75;4920843;28;20044;-77
2022/04/11 01:54:24;;;;;;;7.07;3.45;;;;;;;2.48;62.91;93540.59;4931543;28;20118;-75
2022/04/11 01:56:50;;;;;;;7.85;3.17;;;;;;;2.38;62.86;93544.06;4922187;28;20044;-77
2022/04/11 01:59:16;;;;;;;4.03;3.05;;;;;;;2.32;63.66;93524.13;4926407;28;20039;-78
2022/04/11 02:01:43;;;;;;;4.10;3.10;;;;;;;2.64;63.87;93543.94;4922010;28;20060;-77
2022/04/11 02:04:08;;;;;;;10.13;2.63;;;;;;;2.48;62.93;93536.13;4925107;28;20023;-73
2022/04/11 02:06:33;;;;;;;5.85;3.33;;;;;;;2.58;62.57;93537.16;4925961;28;20525;-77
2022/04/11 02:08:59;;;;;;;7.00;3.58;;;;;;;2.80;62.41;93558.56;4920788;28;20494;-78
2022/04/11 02:11:24;;;;;;;6.05;2.75;;;;;;;2.83;62.40;93561.44;4924860;28;20051;-78
2022/04/11 02:13:51;;;;;;;5.03;3.20;;;;;;;2.95;61.86;93574.25;4937147;28;20026;-77
2022/04/11 02:16:17;;;;;;;4.75;3.05;;;;;;;2.87;61.63;93553.81;4923429;29;20469;-78
2022/04/11 02:18:43;;;;;;;4.15;3.03;;;;;;;3.00;61.50;93576.84;4922025;28;20058;-77
2022/04/11 02:21:08;;;;;;;4.07;2.78;;;;;;;2.97;60.56;93553.75;4919042;28;20055;-78
2022/04/11 02:23:33;;;;;;;3.80;2.67;;;;;;;3.00;60.79;93571.59;4923844;28;20056;-77
2022/04/11 02:25:59;;;;;;;3.90;2.97;;;;;;;2.92;61.04;93575.59;4922163;28;20106;-79
2022/04/11 02:28:24;;;;;;;7.47;3.28;;;;;;;3.13;61.13;93592.03;4928696;29;20294;-77
2022/04/11 02:30:50;;;;;;;7.00;3.67;;;;;;;3.03;60.73;93599.16;4927325;28;20510;-78
2022/04/11 02:33:15;;;;;;;5.18;3.22;;;;;;;2.83;61.10;93577.22;4916025;28;20423;-78
2022/04/11 02:35:41;;;;;;;4.30;3.28;;;;;;;3.06;61.33;93607.28;4930256;28;20027;-78
2022/04/11 02:38:06;;;;;;;5.93;2.95;;;;;;;3.01;61.18;93598.66;4913591;28;21153;-77
2022/04/11 02:40:32;;;;;;;5.30;2.47;;;;;;;3.19;61.27;93611.94;4926063;28;20549;-78
2022/04/11 02:42:57;;;;;;;3.78;2.80;;;;;;;3.02;60.54;93598.38;4921512;28;20745;-77
2022/04/11 02:45:23;;;;;;;4.03;3.15;;;;;;;3.12;60.84;93623.81;4922349;28;20095;-77
2022/04/11 02:47:49;;;;;;;4.53;2.97;;;;;;;3.16;61.37;93616.97;4912114;29;20115;-78
2022/04/11 02:50:14;;;;;;;6.57;3.17;;;;;;;3.22;61.13;93611.41;4919469;28;20044;-78
2022/04/11 02:52:40;;;;;;;4.00;2.95;;;;;;;3.21;61.09;93607.22;4925567;28;20442;-76
2022/04/11 02:55:06;;;;;;;6.75;3.10;;;;;;;3.09;61.38;93627.75;4928696;28;20461;-77
2022/04/11 02:57:32;;;;;;;3.92;2.90;;;;;;;3.20;62.32;93639.00;4922360;28;20151;-73
2022/04/11 02:59:57;;;;;;;5.75;3.58;;;;;;;3.07;62.41;93632.53;4917393;28;20036;-76
2022/04/11 03:02:23;;;;;;;7.20;3.95;;;;;;;3.27;62.89;93642.13;4924160;29;20047;-76
2022/04/11 03:04:48;;;;;;;6.07;3.88;;;;;;;2.99;62.93;93580.53;4915699;28;20058;-78
2022/04/11 03:07:14;;;;;;;7.82;3.78;;;;;;;3.48;62.72;93650.69;4924890;29;20124;-77
2022/04/11 03:09:39;;;;;;;8.82;5.20;;;;;;;3.25;62.57;93631.09;4919105;28;20407;-78
2022/04/11 03:12:06;;;;;;;6.18;4.18;;;;;;;3.50;62.47;93644.09;4921976;28;20063;-78
2022/04/11 03:14:31;;;;;;;6.10;3.05;;;;;;;3.56;62.08;93637.75;4927229;28;20038;-76
2022/04/11 03:16:57;;;;;;;7.07;3.78;;;;;;;3.57;61.41;93628.03;4927494;28;20063;-77
2022/04/11 03:19:22;;;;;;;13.75;3.65;;;;;;;3.79;61.66;93652.84;4922495;29;20118;-78
2022/04/11 03:21:48;;;;;;;13.43;4.38;;;;;;;3.66;61.53;93647.41;4916283;28;20035;-78
2022/04/11 03:24:16;;;;;;;6.90;4.80;;;;;;;3.78;60.84;93663.63;4923898;28;20059;-74
2022/04/11 03:26:41;;;;;;;6.03;3.65;;;;;;;3.78;60.77;93663.63;4926251;28;20181;-77
2022/04/11 03:29:07;;;;;;;5.60;2.95;;;;;;;3.80;60.63;93661.53;4922440;28;20043;-77
2022/04/11 03:31:32;;;;;;;8.40;4.20;;;;;;;3.63;60.28;93638.22;4936800;28;20027;-76
2022/04/11 03:33:58;;;;;;;11.57;6.32;;;;;;;3.70;60.23;93653.69;4917682;28;20090;-78
2022/04/11 03:36:24;;;;;;;10.60;5.70;;;;;;;4.00;59.89;93664.00;4922184;28;20757;-77
2022/04/11 03:38:50;;;;;;;15.68;6.47;;;;;;;3.64;58.88;93639.78;4936572;28;20040;-77
2022/04/11 03:41:15;;;;;;;13.25;5.88;;;;;;;3.89;59.14;93678.28;4924147;28;20032;-78
2022/04/11 03:43:41;;;;;;;7.68;5.05;;;;;;;3.81;58.62;93676.25;4922421;28;20482;-77
2022/04/11 03:46:06;;;;;;;6.78;4.20;;;;;;;3.78;58.86;93689.94;4923976;28;20549;-76
2022/04/11 03:48:31;;;;;;;7.32;4.22;;;;;;;3.76;58.36;93695.50;4928956;28;20039;-73
2022/04/11 03:50:57;;;;;;;7.15;4.50;;;;;;;3.63;58.27;93695.28;4923670;28;20130;-77
2022/04/11 03:53:22;;;;;;;8.88;4.78;;;;;;;3.52;58.72;93693.78;4926121;28;20047;-78
2022/04/11 03:55:47;;;;;;;4.55;2.60;;;;;;;3.48;58.64;93687.50;4940025;28;20402;-76
2022/04/11 03:58:13;;;;;;;5.32;3.53;;;;;;;3.51;58.64;93694.84;4921188;28;20035;-78
2022/04/11 04:00:38;;;;;;;6.78;3.90;;;;;;;3.38;58.56;93680.44;4932273;28;20146;-78
2022/04/11 04:03:11;;;;;;;6.50;5.25;;;;;;;3.41;58.60;93703.56;4919185;28;20039;-77
2022/04/11 04:05:40;;;;;;;6.18;3.38;;;;;;;3.06;58.40;93675.59;4924265;28;20102;-78
2022/04/11 04:08:07;;;;;;;3.72;3.33;;;;;;;3.06;58.75;93711.59;4920437;28;20051;-76
2022/04/11 04:10:32;;;;;;;5.63;3.55;;;;;;;3.04;58.90;93717.13;4923996;29;20094;-77
2022/04/11 04:13:01;;;;;;;6.13;3.67;;;;;;;2.78;58.98;93718.25;4921664;28;20494;-74
2022/04/11 04:15:26;;;;;;;5.70;3.28;;;;;;;2.70;59.21;93719.56;4931741;28;20050;-78
2022/04/11 04:17:53;;;;;;;8.98;3.65;;;;;;;2.72;60.22;93725.34;4927312;28;20058;-79
2022/04/11 04:20:19;;;;;;;4.32;3.55;;;;;;;2.79;59.92;93725.84;4928075;28;20862;-77
2022/04/11 04:22:44;;;;;;;4.35;2.85;;;;;;;2.84;60.22;93730.34;4943143;28;20027;-77
2022/04/11 04:25:10;;;;;;;5.55;3.40;;;;;;;2.95;59.66;93726.59;4928931;29;20062;-78
2022/04/11 04:27:35;;;;;;;6.10;4.10;;;;;;;2.88;59.46;93724.28;4927645;28;20922;-78
2022/04/11 04:30:01;;;;;;;6.57;4.13;;;;;;;2.96;59.75;93744.75;4930907;28;20469;-78
2022/04/11 04:32:27;;;;;;;6.00;3.03;;;;;;;2.91;59.32;93736.09;4929473;28;20043;-76
2022/04/11 04:34:52;;;;;;;6.90;3.95;;;;;;;2.98;59.63;93733.97;4940441;28;20031;-78
2022/04/11 04:37:18;;;;;;;8.20;3.83;;;;;;;2.77;58.77;93714.06;4923561;29;20062;-77
2022/04/11 04:39:43;;;;;;;8.25;4.78;;;;;;;2.73;58.55;93728.78;4921528;28;20110;-78
2022/04/11 04:42:09;;;;;;;6.43;3.63;;;;;;;2.69;58.41;93740.88;4928492;28;20384;-78
2022/04/11 04:44:39;;;;;;;8.13;4.55;;;;;;;2.69;58.82;93759.25;4924452;28;20044;-77
2022/04/11 04:47:06;;;;;;;4.68;3.10;;;;;;;2.39;59.28;93734.59;4924162;28;20095;-77
2022/04/11 04:49:31;;;;;;;5.28;2.78;;;;;;;2.55;59.41;93743.22;4928886;28;20032;-76
2022/04/11 04:51:57;;;;;;;4.45;3.22;;;;;;;2.65;59.01;93773.94;4912120;28;20045;-77
2022/04/11 04:54:22;;;;;;;6.32;3.95;;;;;;;2.73;59.38;93776.84;4921098;28;20823;-77
2022/04/11 04:56:49;;;;;;;5.18;2.92;;;;;;;2.84;59.06;93783.63;4925939;28;20275;-77
2022/04/11 04:59:14;;;;;;;5.68;3.88;;;;;;;2.90;59.17;93781.78;4922405;28;20098;-74
2022/04/11 05:01:40;;;;;;;4.47;3.63;;;;;;;2.89;58.81;93788.88;4923779;28;20032;-77
2022/04/11 05:04:05;;;;;;;6.72;3.65;;;;;;;2.94;58.95;93783.59;4926513;29;20046;-78
2022/04/11 05:06:31;;;;;;;11.32;3.58;;;;;;;2.87;58.06;93762.09;4917921;28;20031;-78
2022/04/11 05:08:56;;;;;;;5.80;4.35;;;;;;;3.02;57.83;93794.66;4936467;28;20268;-78
2022/04/11 05:11:22;;;;;;;6.57;2.97;;;;;;;2.99;57.62;93806.47;4920085;28;20040;-78
2022/04/11 05:13:47;;;;;;;6.53;3.70;;;;;;;2.97;58.01;93805.94;4926028;28;20509;-77
2022/04/11 05:16:12;;;;;;;6.72;3.63;;;;;;;2.91;58.01;93794.66;4929379;29;20134;-78
2022/04/11 05:18:38;;;;;;;8.02;4.00;;;;;;;2.93;57.77;93807.53;4923460;28;20050;-77
2022/04/11 05:21:04;;;;;;;8.25;3.67;;;;;;;2.87;58.08;93811.22;4919757;28;20511;-78
2022/04/11 05:23:30;;;;;;;10.63;5.00;;;;;;;2.83;58.39;93786.53;4932625;28;20051;-79
2022/04/11 05:25:56;;;;;;;5.55;3.45;;;;;;;2.90;57.54;93795.72;4930666;28;20034;-73
2022/04/11 05:28:22;;;;;;;6.00;3.30;;;;;;;2.84;57.42;93793.38;4927228;29;20023;-78
2022/04/11 05:30:48;;;;;;;5.03;3.67;;;;;;;3.00;57.81;93810.66;4928697;28;20514;-77
2022/04/11 05:33:15;;;;;;;6.32;3.97;;;;;;;3.02;57.13;93818.28;4919033;28;20586;-77
2022/04/11 05:35:40;;;;;;;5.43;4.07;;;;;;;2.97;57.71;93800.69;4923152;28;20040;-77
2022/04/11 05:38:06;;;;;;;5.00;4.32;;;;;;;3.00;57.51;93802.78;4926085;28;20694;-78
2022/04/11 05:40:31;;;;;;;5.07;3.58;;;;;;;2.89;57.18;93819.63;4930245;28;20031;-75
2022/04/11 05:42:56;;;;;;;5.93;3.20;;;;;;;2.89;57.30;93824.88;4922944;28;20039;-77
2022/04/11 05:45:22;;;;;;;4.82;2.95;;;;;;;2.73;58.31;93818.06;4924424;28;20051;-77
2022/04/11 05:47:47;;;;;;;5.25;3.50;;;;;;;2.78;57.76;93824.09;4925665;28;20035;-76
2022/04/11 05:50:13;;;;;;;7.60;3.83;;;;;;;2.89;57.85;93830.16;4920690;28;20555;-77
2022/04/11 05:52:39;;;;;;;4.45;3.08;;;;;;;2.99;57.85;93840.63;4923916;28;20474;-76
2022/04/11 05:55:04;;;;;;;4.63;3.58;;;;;;;3.10;57.31;93855.31;4924305;28;20466;-78
2022/04/11 05:57:30;;;;;;;6.32;4.00;;;;;;;3.00;56.71;93836.94;4923875;28;20212;-79
2022/04/11 05:59:55;;;;;;;6.70;3.55;;;;;;;2.94;56.29;93846.66;4922227;28;20044;-76
2022/04/11 06:02:20;;;;;;;6.80;4.35;;;;;;;2.84;56.40;93835.41;4924346;28;20036;-76
2022/04/11 06:04:46;;;;;;;7.93;3.78;;;;;;;2.66;56.00;93786.81;4924360;28;20481;-77
2022/04/11 06:07:12;;;;;;;4.85;4.15;;;;;;;3.26;56.63;93864.75;4922370;29;20027;-79
2022/04/11 06:09:37;;;;;;;6.20;3.83;;;;;;;3.02;54.84;93840.09;4925592;28;20066;-77
2022/04/11 06:12:03;;;;;;;5.82;3.42;;;;;;;3.00;55.56;93860.59;4922939;28;20031;-78
2022/04/11 06:14:28;;;;;;;7.80;3.17;;;;;;;3.15;55.69;93857.94;4925225;28;20517;-77
2022/04/11 06:16:54;;;;;;;5.25;3.33;;;;;;;3.09;55.98;93860.84;4922023;28;20291;-77
2022/04/11 06:19:19;;;;;;;4.68;3.60;;;;;;;3.16;55.78;93864.00;4923249;29;20098;-76
2022/04/11 06:21:44;;;;;;;7.88;3.42;;;;;;;3.02;56.11;93842.72;4925947;28;20648;-77
2022/04/11 06:24:10;;;;;;;4.55;3.47;;;;;;;3.01;55.49;93849.03;4927292;28;20047;-74
2022/04/11 06:26:37;;;;;;;4.60;3.35;;;;;;;3.03;55.27;93875.84;4928199;28;20039;-73
2022/04/11 06:29:02;;;;;;;5.25;3.58;;;;;;;2.96;55.60;93870.84;4925608;28;20046;-77
2022/04/11 06:31:28;;;;;;;5.72;3.17;;;;;;;3.09;56.07;93861.63;4924574;28;20027;-76
2022/04/11 06:33:53;;;;;;;6.57;2.95;;;;;;;3.04;55.99;93874.00;4926556;28;20035;-78
2022/04/11 06:36:18;;;;;;;8.20;4.15;;;;;;;2.92;56.21;93850.63;4921666;28;20050;-78
2022/04/11 06:38:44;;;;;;;9.82;4.00;;;;;;;3.26;56.40;93869.22;4924091;28;20035;-77
2022/04/11 06:41:09;;;;;;;8.57;4.43;;;;;;;3.20;56.23;93871.06;4936187;28;20110;-77
2022/04/11 06:43:35;;;;;;;6.13;3.80;;;;;;;3.20;56.26;93860.56;4926650;29;20474;-77
2022/04/11 06:46:00;;;;;;;5.30;3.85;;;;;;;3.30;56.14;93865.81;4923667;28;20039;-77
2022/04/11 06:48:25;;;;;;;5.55;3.25;;;;;;;3.26;55.82;93851.63;4929844;28;20215;-78
2022/04/11 06:50:52;;;;;;;6.32;4.38;;;;;;;3.31;55.95;93875.28;4926349;28;20161;-78
2022/04/11 06:53:19;;;;;;;7.28;3.75;;;;;;;3.32;55.69;93871.59;4915800;28;20147;-76
2022/04/11 06:55:47;;;;;;;7.43;4.43;;;;;;;3.47;55.73;93880.50;4923910;28;20027;-78
2022/04/11 06:58:16;;;;;;;7.28;4.57;;;;;;;3.51;55.99;93871.81;4926954;28;20039;-78
2022/04/11 07:00:42;;;;;;;7.20;3.90;;;;;;;3.68;55.01;93879.38;4919454;28;20039;-77
2022/04/11 07:03:08;;;;;;;7.80;3.90;;;;;;;3.70;54.47;93869.38;4921753;28;20058;-77
2022/04/11 07:05:34;;;;;;;8.95;4.35;;;;;;;3.89;54.15;93886.16;4924239;28;20157;-78
2022/04/11 07:08:00;;;;;;;6.20;3.83;;;;;;;3.74;53.08;93859.88;4920388;28;25581;-78
2022/04/11 07:10:25;;;;;;;6.78;4.18;;;;;;;3.70;53.64;93864.91;4928699;28;20078;-78
2022/04/11 07:12:52;;;;;;;7.40;3.58;;;;;;;3.98;53.51;93887.16;4926197;28;20042;-73
2022/04/11 07:15:17;;;;;;;11.25;4.20;;;;;;;4.11;52.46;93883.94;4925589;28;20048;-77
2022/04/11 07:17:43;;;;;;;7.88;4.00;;;;;;;4.14;52.54;93888.66;4925961;28;20039;-78
2022/04/11 07:20:09;;;;;;;5.18;3.83;;;;;;;4.28;52.32;93878.34;4924836;28;20601;-78
2022/04/11 07:22:34;;;;;;;5.07;3.97;;;;;;;4.22;51.51;93887.31;4928116;29;20020;-78
2022/04/11 07:25:01;;;;;;;5.00;3.78;;;;;;;4.07;51.96;93869.75;4919509;28;20062;-79
2022/04/11 07:27:26;;;;;;;5.57;3.58;;;;;;;4.36;51.58;93879.63;4930080;28;20615;-77
2022/04/11 07:29:52;;;;;;;4.30;3.17;;;;;;;4.42;51.61;93881.97;4928883;28;20031;-76
2022/04/11 07:32:17;;;;;;;6.38;3.22;;;;;;;4.63;51.69;93893.16;4927550;28;20087;-78
2022/04/11 07:34:42;;;;;;;7.68;4.38;;;;;;;4.66;52.01;93888.13;4927946;28;20036;-78
2022/04/11 07:37:08;;;;;;;5.57;3.60;;;;;;;4.99;51.66;93902.38;4931676;29;20473;-77
2022/04/11 07:39:33;;;;;;;6.85;4.20;;;;;;;4.90;50.27;93900.59;4926433;28;20178;-78
2022/04/11 07:42:00;;;;;;;9.30;4.28;;;;;;;4.89;49.92;93905.13;4924823;28;20192;-76
2022/04/11 07:44:25;;;;;;;7.93;3.80;;;;;;;4.87;49.21;93919.59;4923379;28;20418;-79
2022/04/11 07:46:50;;;;;;;6.57;3.67;;;;;;;4.88;49.85;93895.63;4929320;28;20027;-77
2022/04/11 07:49:16;;;;;;;5.45;3.50;;;;;;;4.93;49.50;93902.72;4932677;28;20074;-78
2022/04/11 07:51:41;;;;;;;6.22;4.38;;;;;;;4.94;48.20;93920.84;4928420;28;20047;-79
2022/04/11 07:54:10;;;;;;;3.70;2.97;;;;;;;4.83;48.28;93911.47;4929143;28;20035;-78
2022/04/11 07:56:35;;;;;;;8.50;4.38;;;;;;;5.06;48.60;93934.50;4925890;28;20600;-79
2022/04/11 07:59:00;;;;;;;5.05;3.90;;;;;;;5.00;48.30;93922.41;4925156;28;20658;-77
2022/04/11 08:01:28;;;;;;;5.72;4.47;;;;;;;4.94;48.52;93928.00;4925447;28;20058;-78
2022/04/11 08:03:53;;;;;;;6.15;3.63;;;;;;;5.02;48.67;93933.47;4928333;28;20154;-77
2022/04/11 08:06:19;;;;;;;5.28;3.78;;;;;;;4.92;49.61;93948.56;4927619;28;20043;-79
2022/04/11 08:08:46;;;;;;;7.85;3.75;;;;;;;5.02;48.72;93936.09;4930980;28;20082;-79
2022/04/11 08:11:12;;;;;;;6.43;3.28;;;;;;;4.97;48.68;93951.97;4926574;28;20045;-74
2022/04/11 08:13:39;;;;;;;6.75;3.80;;;;;;;5.06;49.30;93939.75;4930172;28;20082;-78
2022/04/11 08:16:05;;;;;;;10.68;4.57;;;;;;;5.15;48.64;93945.22;4926432;28;20047;-79
2022/04/11 08:18:30;;;;;;;5.07;3.55;;;;;;;5.07;48.35;93937.91;4925423;28;20063;-77
2022/04/11 08:20:55;;;;;;;6.38;3.55;;;;;;;5.04;48.48;93923.44;4926348;28;20165;-78
2022/04/11 08:23:21;;;;;;;6.90;4.55;;;;;;;5.21;49.37;93936.22;4929265;28;20395;-78
2022/04/11 08:25:47;;;;;;;5.20;3.88;;;;;;;5.29;48.41;93926.91;4926216;28;20035;-78
2022/04/11 08:28:13;;;;;;;10.40;4.07;;;;;;;5.50;48.19;93949.44;4928719;28;20036;-78
2022/04/11 08:30:38;;;;;;;4.28;3.65;;;;;;;5.52;47.76;93934.91;4927417;28;20047;-79
2022/04/11 08:33:04;;;;;;;4.93;3.75;;;;;;;5.51;47.46;93922.00;4925499;28;20039;-78
2022/04/11 08:35:29;;;;;;;6.22;3.78;;;;;;;5.77;48.22;93931.25;4928947;28;20050;-77
2022/04/11 08:37:55;;;;;;;12.27;4.07;;;;;;;5.62;47.09;93934.03;4925385;28;20070;-76
2022/04/11 08:40:20;;;;;;;5.82;4.00;;;;;;;5.57;46.71;93965.72;4930497;28;20142;-77
2022/04/11 08:42:48;;;;;;;5.57;3.50;;;;;;;5.70;46.55;93957.16;4944636;28;20035;-78
2022/04/11 08:45:15;;;;;;;6.85;3.72;;;;;;;5.42;45.97;93957.94;4929435;28;20039;-78
2022/04/11 08:47:41;;;;;;;4.13;3.70;;;;;;;5.41;45.70;93966.91;4929631;28;20035;-78
2022/04/11 08:50:07;;;;;;;10.18;3.53;;;;;;;5.58;46.87;93962.78;4918436;28;20046;-76
2022/04/11 08:52:35;;;;;;;4.93;3.40;;;;;;;5.63;46.95;93969.88;4925828;28;20023;-78
2022/04/11 08:55:01;;;;;;;4.47;3.38;;;;;;;5.60;44.81;93980.22;4926558;28;20046;-77
2022/04/11 08:57:27;;;;;;;5.13;3.03;;;;;;;5.53;45.20;93975.25;4926459;28;20561;-77
2022/04/11 08:59:52;;;;;;;4.65;3.55;;;;;;;5.56;45.50;93961.50;4922145;28;20038;-79
2022/04/11 09:02:18;;;;;;;6.35;4.28;;;;;;;5.61;45.71;93966.75;4941086;28;20047;-78
2022/04/11 09:04:56;;;;;;;5.20;3.70;;;;;;;5.64;45.85;93960.91;4922855;28;20573;-79
2022/04/11 09:07:21;;;;;;;8.98;3.45;;;;;;;5.68;45.79;93963.75;4943658;28;20034;-79
2022/04/11 09:09:47;;;;;;;5.97;3.30;;;;;;;5.53;44.53;93954.13;4924176;28;20068;-77
2022/04/11 09:12:14;;;;;;;5.45;3.00;;;;;;;5.65;44.86;93961.69;4926350;28;20090;-79
2022/04/11 09:14:40;;;;;;;4.32;3.58;;;;;;;5.67;46.15;93978.84;4927514;28;20039;-79
2022/04/11 09:17:06;;;;;;;4.32;3.92;;;;;;;5.58;46.76;93954.09;4930403;28;20102;-78
2022/04/11 09:19:31;;;;;;;5.10;3.67;;;;;;;5.64;46.93;93954.84;4921222;28;20034;-78
2022/04/11 09:21:57;;;;;;;5.15;4.03;;;;;;;5.70;45.08;93969.56;4931072;28;20053;-78
2022/04/11 09:24:26;;;;;;;5.60;3.65;;;;;;;5.62;45.74;93963.06;4927114;28;20043;-76
2022/04/11 09:26:55;;;;;;;7.18;3.45;;;;;;;5.63;45.63;93964.59;4943079;28;20445;-77
2022/04/11 09:29:22;;;;;;;4.47;3.83;;;;;;;5.75;46.51;93967.66;4926187;28;20039;-77
2022/04/11 09:31:47;;;;;;;5.32;3.67;;;;;;;5.53;44.83;93956.78;4940706;28;20114;-77
2022/04/11 09:34:20;;;;;;;4.88;3.45;;;;;;;5.65;44.36;93966.97;4930625;28;20034;-79
2022/04/11 09:36:57;;;;;;;4.97;3.95;;;;;;;5.90;45.43;93969.38;4944289;28;21836;-79
2022/04/11 09:39:31;;;;;;;4.88;3.65;;;;;;;6.15;45.89;93974.38;4925807;28;20066;-77
2022/04/11 09:41:57;;;;;;;5.73;3.43;;;;;;;6.13;43.90;93973.88;4933560;28;20036;-78
2022/04/11 09:44:26;;;;;;;5.10;2.65;;;;;;;6.18;43.43;93962.50;4920654;28;20036;-79
2022/04/11 09:46:58;;;;;;;4.45;3.33;;;;;;;6.04;43.87;93965.00;4929490;28;20035;-76
2022/04/11 09:49:24;;;;;;;3.92;3.53;;;;;;;5.88;43.73;93976.78;4924730;28;20062;-79
2022/04/11 09:52:08;;;;;;;6.07;2.90;;;;;;;5.91;43.65;93970.94;4924899;28;20130;-77
2022/04/11 09:54:44;;;;;;;8.07;3.83;;;;;;;5.91;42.92;93961.19;4928525;28;20490;-79
2022/04/11 09:57:14;;;;;;;7.43;3.25;;;;;;;5.88;43.45;93956.44;4928482;28;20040;-77
2022/04/11 09:59:40;;;;;;;5.70;3.75;;;;;;;6.05;43.18;93965.78;4921275;28;20094;-78
2022/04/11 10:02:07;;;;;;;5.72;3.28;;;;;;;5.93;42.47;93948.47;4908964;28;20074;-77
2022/04/11 10:04:34;;;;;;;5.38;3.55;;;;;;;6.06;43.17;93959.44;4924797;28;20366;-78
2022/04/11 10:07:00;;;;;;;4.47;3.42;;;;;;;6.16;43.09;93935.59;4924094;28;20126;-77
2022/04/11 10:09:26;;;;;;;6.15;3.33;;;;;;;6.15;42.09;93939.28;4930401;28;20043;-79
2022/04/11 10:11:53;;;;;;;3.10;2.53;;;;;;;6.34;43.14;93958.63;4931382;28;20054;-79
2022/04/11 10:14:23;;;;;;;3.58;2.78;;;;;;;6.45;42.99;93949.50;4936318;28;20532;-78
2022/04/11 10:16:52;;;;;;;6.40;3.65;;;;;;;6.40;43.27;93931.88;4939705;28;20078;-78
2022/04/11 10:19:23;;;;;;;6.03;4.30;;;;;;;6.73;43.62;93961.03;4924171;28;20039;-79
2022/04/11 10:21:50;;;;;;;5.25;3.50;;;;;;;6.79;43.65;93960.69;4925558;28;20572;-76
2022/04/11 10:24:18;;;;;;;4.22;3.30;;;;;;;6.78;42.49;93943.25;4920843;28;20422;-78
2022/04/11 10:26:53;;;;;;;5.68;3.60;;;;;;;6.79;41.65;93957.25;4924847;28;20043;-78
2022/04/11 10:29:37;;;;;;;7.45;3.72;;;;;;;6.61;41.90;93974.66;4924225;28;20044;-79
2022/04/11 10:32:14;;;;;;;4.83;3.67;;;;;;;6.63;42.20;93967.22;4925698;28;20657;-77
2022/04/11 10:34:51;;;;;;;4.70;3.78;;;;;;;6.40;41.34;93963.56;4921385;28;20376;-77
2022/04/11 10:37:18;;;;;;;4.18;3.28;;;;;;;6.43;41.52;93946.34;4926753;28;20410;-78
2022/04/11 10:39:45;;;;;;;4.95;3.63;;;;;;;6.38;41.53;93964.91;4921342;28;20043;-79
2022/04/11 10:42:15;;;;;;;3.30;2.92;;;;;;;6.37;42.11;93947.47;4926436;28;20044;-78
2022/04/11 10:44:50;;;;;;;3.67;3.30;;;;;;;6.40;41.72;93933.72;4921140;28;20102;-77
2022/04/11 10:47:15;;;;;;;4.80;3.55;;;;;;;6.37;41.08;93960.69;4922442;28;20118;-77
2022/04/11 10:49:53;;;;;;;7.53;2.55;;;;;;;6.41;40.85;93949.25;4919429;28;20485;-78
2022/04/11 10:52:33;;;;;;;7.22;3.55;;;;;;;6.58;39.91;93951.44;4920690;28;20023;-78
2022/04/11 10:55:07;;;;;;;4.05;3.15;;;;;;;6.67;41.78;93955.00;4922987;28;20114;-78
2022/04/11 10:57:34;;;;;;;4.07;3.33;;;;;;;6.53;40.80;93958.66;4921063;28;20627;-73
2022/04/11 11:00:19;;;;;;;4.40;3.58;;;;;;;6.70;40.90;93957.09;4943199;28;20047;-79
2022/04/11 11:02:54;;;;;;;4.07;3.20;;;;;;;6.62;40.58;93968.28;4915817;28;20063;-78
2022/04/11 11:05:26;;;;;;;4.10;3.00;;;;;;;6.63;40.57;93956.66;4925484;28;20953;-79
2022/04/11 11:08:09;;;;;;;4.55;2.90;;;;;;;6.62;40.15;93952.44;4916034;28;20296;-77
2022/04/11 11:10:44;;;;;;;3.40;3.10;;;;;;;6.68;41.02;93959.25;4932055;28;20237;-78
2022/04/11 11:13:34;;;;;;;11.13;3.88;;;;;;;6.88;41.11;93958.19;4923331;28;20398;-78
2022/04/11 11:16:06;;;;;;;5.75;2.90;;;;;;;6.76;39.30;93963.88;4919968;28;20394;-74
2022/04/11 11:18:47;;;;;;;3.00;2.33;;;;;;;6.74;39.51;93958.09;4919279;28;20046;-76
2022/04/11 11:21:14;;;;;;;3.88;3.03;;;;;;;6.78;39.79;93953.81;4921507;28;20123;-77
2022/04/11 11:23:40;;;;;;;5.80;3.58;;;;;;;6.89;40.47;93948.41;4925247;28;20519;-76
2022/04/11 11:26:13;;;;;;;5.50;3.15;;;;;;;6.88;39.68;93958.19;4919860;28;20054;-78
2022/04/11 11:28:45;;;;;;;5.22;3.00;;;;;;;6.88;39.17;93957.38;4914733;28;20393;-78
2022/04/11 11:31:10;;;;;;;3.28;2.40;;;;;;;6.83;38.77;93961.69;4917967;28;20653;-77
2022/04/11 11:33:36;;;;;;;3.72;2.72;;;;;;;6.73;39.55;93938.03;4923909;28;20468;-78
2022/04/11 11:36:04;;;;;;;3.63;3.33;;;;;;;6.98;39.37;93941.38;4921562;28;20585;-72
2022/04/11 11:38:31;;;;;;;3.03;2.50;;;;;;;7.14;38.90;93956.72;4919932;28;20481;-77
2022/04/11 11:40:59;;;;;;;3.13;2.60;;;;;;;6.90;37.72;93955.25;4937105;28;20027;-78